Time;durP1;ratioP1;P1;durP2;ratioP2;P2;SDS_P1;SDS_P2;PMS_P1;PMS_P2;Temp;Humidity;BMP_temperature;BMP_pressure;BME280_temperature;BME280_humidity;BME280_pressure;Samples;Min_cycle;Max_cycle;Signal;HPM_P1;HPM_P2
2022/05/16 00:00:57;;;;;;;3.05;1.25;;;;;;;;;;5002336;28;20517;-84
2022/05/16 00:03:24;;;;;;;2.80;1.35;;;;;;;;;;5002013;28;20045;-84
2022/05/16 00:05:49;;;;;;;4.45;2.20;;;;;;;;;;5001837;28;20498;-84
2022/05/16 00:08:15;;;;;;;3.00;1.25;;;;;;;;;;5001678;28;20033;-84
2022/05/16 00:10:40;;;;;;;3.78;1.70;;;;;;;;;;5001652;28;20070;-84
2022/05/16 00:13:06;;;;;;;3.95;1.52;;;;;;;;;;5017495;28;20039;-84
2022/05/16 00:15:31;;;;;;;4.97;1.70;;;;;;;;;;5001270;28;20055;-84
2022/05/16 00:17:57;;;;;;;2.97;1.98;;;;;;;;;;5001483;28;20136;-84
2022/05/16 00:20:22;;;;;;;3.17;1.70;;;;;;;;;;5017970;28;20485;-84
2022/05/16 00:22:48;;;;;;;2.15;1.15;;;;;;;;;;4985680;28;20384;-84
2022/05/16 00:25:15;;;;;;;2.63;1.20;;;;;;;;;;4985294;28;20039;-84
2022/05/16 00:27:41;;;;;;;2.72;1.08;;;;;;;;;;5001256;28;20040;-84
2022/05/16 00:30:08;;;;;;;3.85;1.85;;;;;;;;;;5000490;28;20033;-84
2022/05/16 00:32:33;;;;;;;3.70;1.50;;;;;;;;;;4985393;28;20136;-84
2022/05/16 00:34:59;;;;;;;4.40;1.35;;;;;;;;;;5001128;28;20071;-84
2022/05/16 00:37:24;;;;;;;2.90;1.48;;;;;;;;;;5017648;28;20037;-84
2022/05/16 00:39:50;;;;;;;4.03;1.40;;;;;;;;;;5017558;28;20033;-84
2022/05/16 00:42:15;;;;;;;2.22;1.35;;;;;;;;;;5017203;28;20083;-84
2022/05/16 00:44:41;;;;;;;2.70;1.52;;;;;;;;;;5000656;28;20098;-84
2022/05/16 00:47:06;;;;;;;2.80;1.38;;;;;;;;;;5014344;28;20470;-84
2022/05/16 00:49:34;;;;;;;3.15;1.30;;;;;;;;;;4997977;28;20044;-84
2022/05/16 00:52:04;;;;;;;3.00;1.38;;;;;;;;;;4997552;28;20400;-84
2022/05/16 00:54:41;;;;;;;4.78;1.45;;;;;;;;;;4998696;28;20037;-84
2022/05/16 00:57:08;;;;;;;2.85;0.88;;;;;;;;;;5028340;28;20044;-84
2022/05/16 00:59:58;;;;;;;3.03;1.00;;;;;;;;;;4981608;28;20037;-84
2022/05/16 01:05:08;;;;;;;2.83;1.30;;;;;;;;;;5002654;28;20033;-84
2022/05/16 01:07:36;;;;;;;2.67;1.30;;;;;;;;;;4986351;28;20082;-84
2022/05/16 01:10:02;;;;;;;3.45;1.27;;;;;;;;;;5001004;28;20025;-84
2022/05/16 01:12:38;;;;;;;2.17;1.23;;;;;;;;;;5016543;28;20051;-85
2022/05/16 01:15:09;;;;;;;3.63;1.67;;;;;;;;;;5000902;28;20120;-84
2022/05/16 01:17:34;;;;;;;1.92;1.00;;;;;;;;;;5001225;28;20044;-84
2022/05/16 01:20:00;;;;;;;2.78;1.60;;;;;;;;;;5000930;28;20087;-84
2022/05/16 01:22:31;;;;;;;3.10;1.30;;;;;;;;;;5000712;28;20045;-84
2022/05/16 01:24:58;;;;;;;2.90;1.23;;;;;;;;;;5001267;28;20029;-84
2022/05/16 01:27:23;;;;;;;2.92;1.30;;;;;;;;;;4984123;28;20079;-84
2022/05/16 01:29:49;;;;;;;3.28;1.20;;;;;;;;;;5017048;28;20487;-84
2022/05/16 01:32:14;;;;;;;2.88;1.52;;;;;;;;;;5000717;28;20037;-84
2022/05/16 01:34:40;;;;;;;3.28;1.15;;;;;;;;;;5000685;28;20097;-84
2022/05/16 01:37:05;;;;;;;2.35;1.08;;;;;;;;;;5000775;28;20070;-84
2022/05/16 01:39:31;;;;;;;2.03;1.20;;;;;;;;;;5001126;28;20039;-85
2022/05/16 01:41:56;;;;;;;3.72;1.80;;;;;;;;;;5020389;28;20060;-84
2022/05/16 01:44:22;;;;;;;1.95;1.30;;;;;;;;;;5036962;28;20040;-84
2022/05/16 01:46:47;;;;;;;2.72;1.30;;;;;;;;;;5036665;28;20037;-84
2022/05/16 01:49:12;;;;;;;2.25;1.33;;;;;;;;;;5017509;28;20041;-84
2022/05/16 01:51:38;;;;;;;2.13;1.25;;;;;;;;;;5017391;28;20034;-85
2022/05/16 01:54:04;;;;;;;4.47;1.55;;;;;;;;;;5017393;28;20029;-84
2022/05/16 01:56:40;;;;;;;3.03;1.50;;;;;;;;;;5013848;28;20037;-84
2022/05/16 01:59:05;;;;;;;2.15;1.10;;;;;;;;;;5020935;28;20116;-84
2022/05/16 02:01:31;;;;;;;2.67;1.13;;;;;;;;;;5004291;28;20124;-84
2022/05/16 02:03:57;;;;;;;2.47;1.83;;;;;;;;;;5004367;28;20035;-84
2022/05/16 02:06:22;;;;;;;2.20;1.23;;;;;;;;;;5004135;28;20423;-84
2022/05/16 02:08:48;;;;;;;2.90;1.45;;;;;;;;;;5004146;28;20490;-84
2022/05/16 02:11:13;;;;;;;3.70;1.80;;;;;;;;;;5020000;28;20103;-84
2022/05/16 02:13:40;;;;;;;2.53;1.75;;;;;;;;;;5003347;28;20033;-84
2022/05/16 02:16:05;;;;;;;2.40;1.10;;;;;;;;;;4988232;28;20369;-84
2022/05/16 02:18:31;;;;;;;4.07;1.40;;;;;;;;;;4987915;28;20120;-84
2022/05/16 02:26:24;;;;;;;2.58;1.27;;;;;;;;;;5022152;28;20033;-84
2022/05/16 02:28:49;;;;;;;2.53;1.05;;;;;;;;;;5003809;28;20078;-84
2022/05/16 02:31:15;;;;;;;4.68;1.48;;;;;;;;;;5003638;28;20049;-84
2022/05/16 02:33:40;;;;;;;2.25;1.02;;;;;;;;;;5003718;28;20045;-84
2022/05/16 02:36:06;;;;;;;2.60;1.25;;;;;;;;;;5003692;28;20032;-84
2022/05/16 02:38:31;;;;;;;2.20;1.30;;;;;;;;;;4987487;28;20029;-84
2022/05/16 02:40:57;;;;;;;4.72;1.40;;;;;;;;;;5003025;28;20033;-84
2022/05/16 02:43:22;;;;;;;2.85;1.75;;;;;;;;;;5019501;28;20037;-84
2022/05/16 02:45:47;;;;;;;3.30;1.45;;;;;;;;;;5019850;28;20052;-84
2022/05/16 02:48:13;;;;;;;3.28;1.15;;;;;;;;;;5007514;28;20500;-85
2022/05/16 02:50:38;;;;;;;3.05;1.15;;;;;;;;;;4999600;28;20079;-84
2022/05/16 02:53:04;;;;;;;2.70;1.20;;;;;;;;;;4983040;28;20124;-84
2022/05/16 02:55:31;;;;;;;3.60;1.85;;;;;;;;;;5008137;28;20475;-84
2022/05/16 02:57:57;;;;;;;3.42;1.25;;;;;;;;;;5019596;28;20025;-84
2022/05/16 03:00:22;;;;;;;2.75;1.17;;;;;;;;;;5019307;28;20056;-84
2022/05/16 03:02:47;;;;;;;2.95;1.00;;;;;;;;;;5016161;28;20038;-84
2022/05/16 03:05:13;;;;;;;2.97;1.40;;;;;;;;;;4983216;28;20033;-85
2022/05/16 03:07:39;;;;;;;2.45;1.20;;;;;;;;;;5005082;28;20029;-84
2022/05/16 03:10:05;;;;;;;4.13;1.45;;;;;;;;;;5002949;28;20045;-84
2022/05/16 03:12:30;;;;;;;4.65;1.60;;;;;;;;;;5019026;28;20029;-84
2022/05/16 03:14:55;;;;;;;2.50;1.00;;;;;;;;;;5002652;28;20043;-84
2022/05/16 03:17:23;;;;;;;3.10;1.23;;;;;;;;;;4986716;28;20040;-85
2022/05/16 03:19:48;;;;;;;2.35;1.20;;;;;;;;;;5003303;28;20094;-84
2022/05/16 03:22:14;;;;;;;2.13;1.10;;;;;;;;;;5002750;28;20040;-84
2022/05/16 03:24:40;;;;;;;3.88;1.13;;;;;;;;;;4986582;28;20166;-85
2022/05/16 03:27:06;;;;;;;2.78;1.15;;;;;;;;;;5002490;28;20036;-85
2022/05/16 03:29:32;;;;;;;2.95;1.23;;;;;;;;;;5019190;28;20033;-85
2022/05/16 03:31:57;;;;;;;2.92;1.20;;;;;;;;;;5002793;28;20064;-85
2022/05/16 03:34:22;;;;;;;2.88;1.25;;;;;;;;;;5018571;28;20048;-84
2022/05/16 03:36:48;;;;;;;3.00;1.25;;;;;;;;;;5018793;28;20037;-85
2022/05/16 03:41:57;;;;;;;1.63;0.85;;;;;;;;;;5020830;28;20021;-85
2022/05/16 03:44:23;;;;;;;2.13;1.13;;;;;;;;;;5018201;28;20064;-85
2022/05/16 03:46:48;;;;;;;1.65;1.05;;;;;;;;;;5017895;28;20037;-84
2022/05/16 03:49:14;;;;;;;2.45;1.10;;;;;;;;;;4998949;28;20049;-84
2022/05/16 03:51:39;;;;;;;2.92;1.42;;;;;;;;;;4998362;28;20025;-84
2022/05/16 03:54:05;;;;;;;2.05;1.00;;;;;;;;;;4998667;28;20030;-84
2022/05/16 03:56:30;;;;;;;2.47;1.17;;;;;;;;;;4996032;28;20462;-84
2022/05/16 03:58:56;;;;;;;2.30;1.15;;;;;;;;;;5002144;28;20107;-84
2022/05/16 04:01:22;;;;;;;2.40;1.30;;;;;;;;;;5002035;28;20445;-84
2022/05/16 04:03:47;;;;;;;2.53;1.15;;;;;;;;;;5001617;28;20608;-84
2022/05/16 04:06:15;;;;;;;2.92;1.10;;;;;;;;;;5001308;28;20048;-83
2022/05/16 04:08:42;;;;;;;2.45;1.48;;;;;;;;;;5002738;28;20040;-84
2022/05/16 04:11:07;;;;;;;2.03;1.20;;;;;;;;;;5000603;28;20029;-84
2022/05/16 04:13:33;;;;;;;2.80;1.60;;;;;;;;;;4985323;28;20085;-84
2022/05/16 04:15:58;;;;;;;1.63;1.17;;;;;;;;;;5001993;28;20025;-83
2022/05/16 04:18:24;;;;;;;2.63;1.35;;;;;;;;;;5001477;28;20044;-83
2022/05/16 04:20:49;;;;;;;2.72;1.00;;;;;;;;;;5001378;28;20566;-84
2022/05/16 04:23:14;;;;;;;2.20;1.38;;;;;;;;;;5001729;28;20448;-83
2022/05/16 04:25:40;;;;;;;2.40;1.30;;;;;;;;;;4985452;28;20035;-84
2022/05/16 04:28:06;;;;;;;2.88;1.30;;;;;;;;;;5001404;28;20123;-83
2022/05/16 04:30:32;;;;;;;2.47;1.27;;;;;;;;;;5001723;28;20053;-83
2022/05/16 04:32:57;;;;;;;2.67;1.33;;;;;;;;;;5001185;28;20540;-83
2022/05/16 04:35:23;;;;;;;1.90;0.98;;;;;;;;;;5017383;28;20120;-84
2022/05/16 04:37:48;;;;;;;2.17;1.30;;;;;;;;;;5001391;28;20128;-83
2022/05/16 04:40:14;;;;;;;3.33;1.20;;;;;;;;;;4985017;28;20029;-83
2022/05/16 04:42:43;;;;;;;2.00;1.20;;;;;;;;;;5017477;28;20116;-83
2022/05/16 04:45:13;;;;;;;3.17;1.60;;;;;;;;;;5017697;28;20033;-83
2022/05/16 04:47:39;;;;;;;2.78;1.40;;;;;;;;;;5010188;28;20622;-83
2022/05/16 04:50:05;;;;;;;2.35;1.20;;;;;;;;;;4997707;28;20045;-82
2022/05/16 04:52:32;;;;;;;2.85;1.23;;;;;;;;;;4997544;28;20037;-83
2022/05/16 04:54:58;;;;;;;3.65;1.50;;;;;;;;;;5006932;28;20078;-83
2022/05/16 04:57:24;;;;;;;3.70;1.42;;;;;;;;;;5026088;28;20042;-83
2022/05/16 04:59:49;;;;;;;2.42;1.50;;;;;;;;;;4981735;28;20182;-83
2022/05/16 05:02:15;;;;;;;3.03;1.40;;;;;;;;;;4982054;28;20053;-84
2022/05/16 05:04:41;;;;;;;4.97;1.60;;;;;;;;;;4997401;28;20030;-85
2022/05/16 05:07:06;;;;;;;16.60;3.08;;;;;;;;;;5014950;28;20447;-84
2022/05/16 05:14:31;;;;;;;8.73;1.67;;;;;;;;;;4985034;28;20107;-85
2022/05/16 05:15:02;;;;;;;3.83;1.55;;;;;;;;;;5019029;28;20390;-82
2022/05/16 05:17:27;;;;;;;4.60;2.13;;;;;;;;;;5000803;28;20079;-81
2022/05/16 05:19:53;;;;;;;11.30;2.55;;;;;;;;;;5000688;28;20033;-81
2022/05/16 05:22:18;;;;;;;40.80;5.35;;;;;;;;;;5017382;28;20750;-82
2022/05/16 05:24:43;;;;;;;23.25;4.50;;;;;;;;;;5017186;28;20403;-83
2022/05/16 05:27:09;;;;;;;25.67;3.30;;;;;;;;;;5000646;28;20391;-83
2022/05/16 05:29:34;;;;;;;16.75;2.92;;;;;;;;;;5000463;28;20441;-83
2022/05/16 05:32:00;;;;;;;26.45;4.55;;;;;;;;;;5017008;28;20466;-82
2022/05/16 05:34:25;;;;;;;19.45;3.78;;;;;;;;;;5000284;28;20094;-83
2022/05/16 05:36:51;;;;;;;10.32;2.05;;;;;;;;;;5017136;28;20052;-83
2022/05/16 05:39:17;;;;;;;5.47;2.58;;;;;;;;;;5000714;28;20131;-82
2022/05/16 05:41:49;;;;;;;8.88;2.35;;;;;;;;;;5000626;28;20048;-84
2022/05/16 05:44:15;;;;;;;9.93;2.20;;;;;;;;;;5018090;28;20212;-83
2022/05/16 05:46:41;;;;;;;6.18;2.33;;;;;;;;;;5017041;28;20045;-80
2022/05/16 05:49:12;;;;;;;4.47;2.05;;;;;;;;;;5013576;28;20037;-81
2022/05/16 05:51:37;;;;;;;5.88;2.70;;;;;;;;;;4997749;28;20083;-81
2022/05/16 05:54:03;;;;;;;6.05;2.08;;;;;;;;;;4997359;28;20495;-82
2022/05/16 05:56:29;;;;;;;6.10;1.95;;;;;;;;;;5013997;28;20124;-82
2022/05/16 05:58:55;;;;;;;6.15;1.95;;;;;;;;;;5016553;28;20036;-81
2022/05/16 06:01:21;;;;;;;6.28;1.73;;;;;;;;;;5000692;28;20095;-81
2022/05/16 06:03:46;;;;;;;11.35;2.58;;;;;;;;;;5000393;28;20434;-82
2022/05/16 06:06:12;;;;;;;9.15;2.17;;;;;;;;;;5000433;28;20041;-82
2022/05/16 06:08:37;;;;;;;26.45;6.13;;;;;;;;;;5000413;28;20028;-84
2022/05/16 06:11:03;;;;;;;16.50;3.75;;;;;;;;;;4999105;28;20411;-80
2022/05/16 06:13:29;;;;;;;15.43;3.53;;;;;;;;;;4981048;28;20649;-82
2022/05/16 06:15:54;;;;;;;5.93;2.78;;;;;;;;;;5015396;28;20036;-80
2022/05/16 06:18:20;;;;;;;9.10;2.90;;;;;;;;;;4999795;28;20517;-82
2022/05/16 06:20:45;;;;;;;9.43;2.30;;;;;;;;;;5016619;28;20066;-83
2022/05/16 06:23:10;;;;;;;8.98;3.30;;;;;;;;;;5016566;28;20086;-84
2022/05/16 06:25:42;;;;;;;11.80;3.17;;;;;;;;;;5000566;28;20048;-85
2022/05/16 06:28:21;;;;;;;6.70;2.40;;;;;;;;;;5005869;28;20063;-90
2022/05/16 06:30:52;;;;;;;7.00;2.55;;;;;;;;;;5005713;28;20499;-90
2022/05/16 06:33:21;;;;;;;5.68;2.38;;;;;;;;;;5021551;28;20033;-90
2022/05/16 06:35:47;;;;;;;5.30;2.05;;;;;;;;;;5021033;28;20047;-90
2022/05/16 06:38:15;;;;;;;7.22;2.40;;;;;;;;;;4988213;28;20159;-90
2022/05/16 06:40:42;;;;;;;6.38;1.92;;;;;;;;;;5004607;28;20029;-90
2022/05/16 06:43:07;;;;;;;9.25;2.30;;;;;;;;;;5004267;28;20033;-90
2022/05/16 06:45:33;;;;;;;7.53;2.20;;;;;;;;;;5004828;28;20518;-90
2022/05/16 06:47:58;;;;;;;5.70;2.22;;;;;;;;;;5010609;28;20091;-88
2022/05/16 06:50:23;;;;;;;4.35;2.25;;;;;;;;;;4985178;28;20132;-89
2022/05/16 06:52:49;;;;;;;4.97;1.77;;;;;;;;;;5000868;28;20029;-90
2022/05/16 06:55:14;;;;;;;5.78;2.40;;;;;;;;;;5014153;28;20034;-89
2022/05/16 06:57:40;;;;;;;10.10;2.10;;;;;;;;;;5040547;28;20025;-90
2022/05/16 07:00:06;;;;;;;5.20;1.75;;;;;;;;;;5023623;28;20131;-90
2022/05/16 07:02:32;;;;;;;3.30;1.30;;;;;;;;;;5023785;28;20041;-90
2022/05/16 07:04:57;;;;;;;4.95;1.90;;;;;;;;;;5024117;28;20041;-90
2022/05/16 07:07:23;;;;;;;6.50;2.03;;;;;;;;;;5020313;28;20067;-90
2022/05/16 07:09:48;;;;;;;5.15;1.70;;;;;;;;;;4988157;28;20124;-90
2022/05/16 07:12:14;;;;;;;4.85;1.83;;;;;;;;;;4987718;28;20029;-88
2022/05/16 07:14:39;;;;;;;5.22;1.80;;;;;;;;;;4987406;28;20033;-88
2022/05/16 07:17:06;;;;;;;5.00;1.90;;;;;;;;;;4987469;28;20112;-89
2022/05/16 07:19:35;;;;;;;6.43;1.98;;;;;;;;;;4987769;28;20075;-89
2022/05/16 07:22:02;;;;;;;4.55;1.60;;;;;;;;;;5004400;28;20111;-89
2022/05/16 07:24:28;;;;;;;2.88;1.40;;;;;;;;;;4987920;28;20039;-87
2022/05/16 07:29:37;;;;;;;3.63;1.30;;;;;;;;;;5024758;28;20513;-89
2022/05/16 07:32:03;;;;;;;5.05;2.08;;;;;;;;;;4987305;28;20045;-88
2022/05/16 07:34:28;;;;;;;4.35;1.67;;;;;;;;;;5003170;28;20037;-88
2022/05/16 07:36:54;;;;;;;3.60;2.10;;;;;;;;;;5003228;28;20602;-87
2022/05/16 07:39:19;;;;;;;3.10;1.17;;;;;;;;;;5003135;28;20047;-88
2022/05/16 07:41:45;;;;;;;6.45;2.22;;;;;;;;;;5002817;28;20041;-88
2022/05/16 07:44:10;;;;;;;4.68;1.40;;;;;;;;;;5019198;28;20033;-88
2022/05/16 07:46:36;;;;;;;2.58;1.50;;;;;;;;;;5003145;28;20029;-89
2022/05/16 07:49:01;;;;;;;2.95;1.10;;;;;;;;;;4999869;28;20033;-88
2022/05/16 07:51:27;;;;;;;2.92;1.15;;;;;;;;;;4983456;28;20029;-87
2022/05/16 07:53:52;;;;;;;2.53;1.58;;;;;;;;;;5000062;28;20132;-88
2022/05/16 07:56:18;;;;;;;3.17;1.30;;;;;;;;;;4983563;28;20122;-88
2022/05/16 07:58:44;;;;;;;2.83;1.20;;;;;;;;;;5017980;28;20025;-86
2022/05/16 08:01:09;;;;;;;4.32;1.50;;;;;;;;;;5035313;28;20614;-87
2022/05/16 08:03:35;;;;;;;2.40;1.42;;;;;;;;;;5018994;28;20037;-86
2022/05/16 08:06:00;;;;;;;8.07;1.60;;;;;;;;;;5018621;28;20029;-87
2022/05/16 08:11:09;;;;;;;6.80;3.65;;;;;;;;;;5023032;28;20033;-85
2022/05/16 08:13:36;;;;;;;5.68;2.15;;;;;;;;;;5001606;28;20040;-85
2022/05/16 08:16:01;;;;;;;3.25;1.80;;;;;;;;;;4985855;28;20040;-86
2022/05/16 08:18:27;;;;;;;3.78;1.80;;;;;;;;;;5001879;28;20033;-85
2022/05/16 08:20:52;;;;;;;4.85;1.67;;;;;;;;;;5018404;28;20170;-86
2022/05/16 08:23:21;;;;;;;6.43;1.70;;;;;;;;;;5018408;28;20040;-85
2022/05/16 08:25:47;;;;;;;4.63;1.67;;;;;;;;;;5002138;28;20037;-86
2022/05/16 08:28:13;;;;;;;4.15;1.30;;;;;;;;;;5001703;28;20033;-85
2022/05/16 08:30:38;;;;;;;8.95;1.85;;;;;;;;;;5001928;28;20037;-85
2022/05/16 08:33:03;;;;;;;3.90;1.42;;;;;;;;;;5001504;28;20037;-85
2022/05/16 08:35:29;;;;;;;4.65;1.80;;;;;;;;;;4985676;28;20037;-85
2022/05/16 08:40:58;;;;;;;3.90;1.58;;;;;;;;;;5023298;28;20485;-86
2022/05/16 08:43:30;;;;;;;3.83;1.60;;;;;;;;;;5048173;28;20519;-86
2022/05/16 08:46:32;;;;;;;5.47;1.92;;;;;;;;;;5015748;28;20120;-86
2022/05/16 08:49:01;;;;;;;8.90;1.70;;;;;;;;;;5007477;28;20699;-86
2022/05/16 08:51:30;;;;;;;4.78;1.50;;;;;;;;;;5016698;28;20089;-86
2022/05/16 08:54:20;;;;;;;5.55;1.60;;;;;;;;;;5016568;28;20120;-86
2022/05/16 08:56:45;;;;;;;8.48;5.28;;;;;;;;;;5024923;28;20112;-85
2022/05/16 08:59:16;;;;;;;15.25;11.13;;;;;;;;;;5001328;28;20076;-86
2022/05/16 09:01:57;;;;;;;11.75;6.32;;;;;;;;;;4985756;28;20037;-86
2022/05/16 09:04:31;;;;;;;17.80;7.75;;;;;;;;;;5017716;28;20120;-86
2022/05/16 09:07:02;;;;;;;11.80;5.00;;;;;;;;;;5001752;28;20453;-86
2022/05/16 09:09:34;;;;;;;11.60;4.60;;;;;;;;;;4982042;28;20128;-86
2022/05/16 09:12:38;;;;;;;10.98;4.40;;;;;;;;;;4991638;28;20442;-86
2022/05/16 09:15:19;;;;;;;17.98;4.00;;;;;;;;;;4991398;28;20099;-85
2022/05/16 09:18:03;;;;;;;12.50;3.70;;;;;;;;;;4991577;28;20025;-86
2022/05/16 09:21:03;;;;;;;11.07;3.22;;;;;;;;;;5028671;28;20039;-84
2022/05/16 09:23:41;;;;;;;9.65;2.63;;;;;;;;;;5017065;28;20033;-84
2022/05/16 09:26:27;;;;;;;7.63;2.67;;;;;;;;;;5016660;28;20067;-85
2022/05/16 09:29:03;;;;;;;8.23;2.45;;;;;;;;;;5019510;28;20037;-86
2022/05/16 09:31:32;;;;;;;6.75;2.72;;;;;;;;;;5001467;28;20111;-87
2022/05/16 09:33:58;;;;;;;7.70;2.90;;;;;;;;;;5001713;28;20082;-87
2022/05/16 09:36:35;;;;;;;6.55;2.95;;;;;;;;;;5001384;28;20041;-87
2022/05/16 09:39:00;;;;;;;7.72;2.80;;;;;;;;;;5001109;28;20111;-87
2022/05/16 09:42:04;;;;;;;10.63;2.70;;;;;;;;;;5000733;28;20463;-87
2022/05/16 09:44:39;;;;;;;11.23;2.63;;;;;;;;;;5012688;28;20086;-87
2022/05/16 09:47:22;;;;;;;9.52;2.70;;;;;;;;;;5003642;28;20059;-86
2022/05/16 09:50:14;;;;;;;9.88;3.22;;;;;;;;;;5020547;28;20130;-86
2022/05/16 09:52:52;;;;;;;8.57;2.75;;;;;;;;;;5070186;28;20031;-86
2022/05/16 09:55:33;;;;;;;6.97;3.28;;;;;;;;;;5046375;28;20138;-86
2022/05/16 09:58:18;;;;;;;12.73;3.45;;;;;;;;;;5017317;28;20106;-85
2022/05/16 10:00:58;;;;;;;9.40;2.85;;;;;;;;;;5018079;28;20055;-85
2022/05/16 10:03:33;;;;;;;9.25;3.33;;;;;;;;;;5005034;28;20045;-86
2022/05/16 10:06:01;;;;;;;10.25;3.55;;;;;;;;;;5019880;28;20052;-86
2022/05/16 10:08:29;;;;;;;8.93;3.28;;;;;;;;;;5004074;28;20064;-85
2022/05/16 10:10:55;;;;;;;12.85;8.23;;;;;;;;;;5003871;28;20029;-86
2022/05/16 10:13:20;;;;;;;12.57;5.50;;;;;;;;;;4987482;28;20384;-85
2022/05/16 10:15:46;;;;;;;12.27;6.55;;;;;;;;;;5020965;28;20036;-84
2022/05/16 10:18:13;;;;;;;8.70;5.55;;;;;;;;;;5004083;28;20037;-84
2022/05/16 10:20:42;;;;;;;12.65;4.43;;;;;;;;;;4991439;28;20034;-85
2022/05/16 10:23:11;;;;;;;6.30;3.28;;;;;;;;;;5002104;28;20025;-85
2022/05/16 10:25:40;;;;;;;8.50;3.25;;;;;;;;;;4999573;28;20048;-85
2022/05/16 10:28:08;;;;;;;11.57;3.80;;;;;;;;;;4999983;28;20079;-84
2022/05/16 10:33:24;;;;;;;6.75;3.50;;;;;;;;;;5000652;28;20037;-84
2022/05/16 10:33:26;;;;;;;9.48;3.65;;;;;;;;;;5003054;28;20040;-85
2022/05/16 10:36:00;;;;;;;6.88;3.13;;;;;;;;;;5020751;28;20102;-84
2022/05/16 10:38:28;;;;;;;4.97;3.40;;;;;;;;;;5003179;28;20041;-84
2022/05/16 10:40:57;;;;;;;6.10;3.60;;;;;;;;;;5032733;28;20038;-84
2022/05/16 10:43:30;;;;;;;5.80;3.65;;;;;;;;;;5000316;28;20077;-86
2022/05/16 10:46:17;;;;;;;7.00;4.03;;;;;;;;;;5000284;28;20029;-85
2022/05/16 10:48:50;;;;;;;6.32;4.13;;;;;;;;;;5000099;28;20090;-85
2022/05/16 10:51:34;;;;;;;9.45;4.68;;;;;;;;;;5003469;28;20067;-85
2022/05/16 10:54:06;;;;;;;7.93;4.57;;;;;;;;;;5035637;28;20062;-85
2022/05/16 10:56:59;;;;;;;7.50;5.07;;;;;;;;;;5016371;28;20076;-85
2022/05/16 10:59:36;;;;;;;13.00;5.07;;;;;;;;;;4999091;28;20040;-85
2022/05/16 11:02:17;;;;;;;7.20;4.72;;;;;;;;;;5019430;28;20064;-82
2022/05/16 11:04:51;;;;;;;6.68;4.55;;;;;;;;;;5017826;28;20473;-82
2022/05/16 11:07:35;;;;;;;8.55;4.80;;;;;;;;;;5050744;28;20094;-82
2022/05/16 11:10:14;;;;;;;6.75;3.60;;;;;;;;;;5035695;28;20402;-82
2022/05/16 11:13:00;;;;;;;9.00;4.68;;;;;;;;;;5001370;28;20116;-82
2022/05/16 11:15:31;;;;;;;6.03;4.10;;;;;;;;;;5012052;28;20052;-82
2022/05/16 11:17:56;;;;;;;9.15;4.53;;;;;;;;;;5014254;28;20033;-82
2022/05/16 11:20:45;;;;;;;7.35;4.05;;;;;;;;;;5048854;28;20048;-82
2022/05/16 11:23:19;;;;;;;6.70;4.10;;;;;;;;;;5000092;28;20047;-82
2022/05/16 11:26:06;;;;;;;7.72;4.25;;;;;;;;;;4998609;28;20045;-81
2022/05/16 11:28:38;;;;;;;8.10;3.85;;;;;;;;;;5019012;28;20421;-81
2022/05/16 11:31:04;;;;;;;;;;;;;;;;;;5016321;28;20098;-81
2022/05/16 11:33:52;;;;;;;8.07;3.83;;;;;;;;;;5018608;28;19946;-80
2022/05/16 11:36:24;;;;;;;5.53;3.63;;;;;;;;;;5019080;28;20025;-80
2022/05/16 11:39:03;;;;;;;8.02;4.45;;;;;;;;;;5035081;28;20563;-80
2022/05/16 11:41:53;;;;;;;9.30;4.43;;;;;;;;;;5017920;28;20047;-80
2022/05/16 11:44:40;;;;;;;9.57;4.22;;;;;;;;;;5002175;28;20398;-80
2022/05/16 11:47:19;;;;;;;8.85;4.70;;;;;;;;;;5010925;28;20033;-80
2022/05/16 11:49:51;;;;;;;8.00;4.00;;;;;;;;;;5015130;28;20422;-80
2022/05/16 11:52:29;;;;;;;7.68;4.28;;;;;;;;;;5021644;28;20115;-80
2022/05/16 12:00:54;;;;;;;6.95;4.03;;;;;;;;;;5037345;28;20040;-81
2022/05/16 12:03:20;;;;;;;9.48;4.25;;;;;;;;;;5018304;28;20033;-81
2022/05/16 12:05:52;;;;;;;6.60;4.50;;;;;;;;;;5017945;28;20041;-81
2022/05/16 12:08:18;;;;;;;6.57;3.67;;;;;;;;;;5018721;28;20112;-81
2022/05/16 12:11:11;;;;;;;6.30;3.40;;;;;;;;;;5018266;28;20179;-81
2022/05/16 12:13:39;;;;;;;13.23;3.60;;;;;;;;;;5015562;28;20131;-81
2022/05/16 12:16:16;;;;;;;8.10;3.90;;;;;;;;;;5002168;28;20075;-80
2022/05/16 12:18:47;;;;;;;6.28;3.72;;;;;;;;;;5052680;28;20114;-80
2022/05/16 12:21:12;;;;;;;6.97;3.40;;;;;;;;;;5001430;28;20037;-80
2022/05/16 12:23:44;;;;;;;12.23;3.97;;;;;;;;;;5034523;28;20513;-81
2022/05/16 12:26:09;;;;;;;6.93;3.88;;;;;;;;;;5050879;28;20526;-80
2022/05/16 12:28:35;;;;;;;6.18;3.38;;;;;;;;;;5017919;28;20037;-80
2022/05/16 12:31:00;;;;;;;5.78;3.92;;;;;;;;;;5017765;28;20051;-81
2022/05/16 12:33:41;;;;;;;5.78;3.20;;;;;;;;;;5017816;28;20496;-80
2022/05/16 12:36:19;;;;;;;10.15;3.70;;;;;;;;;;5050774;28;20037;-80
2022/05/16 12:38:46;;;;;;;7.53;3.85;;;;;;;;;;5001400;28;20091;-80
2022/05/16 12:41:39;;;;;;;6.57;3.75;;;;;;;;;;4996099;28;20113;-80
2022/05/16 12:44:11;;;;;;;7.63;4.22;;;;;;;;;;5013850;28;20038;-80
2022/05/16 12:46:50;;;;;;;8.57;4.07;;;;;;;;;;5030958;28;20033;-81
2022/05/16 12:49:34;;;;;;;7.68;4.25;;;;;;;;;;5013787;28;20037;-80
2022/05/16 12:52:22;;;;;;;10.88;4.30;;;;;;;;;;5014188;28;20029;-80
2022/05/16 12:55:12;;;;;;;9.80;5.30;;;;;;;;;;5006449;28;20044;-80
2022/05/16 12:57:42;;;;;;;12.02;5.32;;;;;;;;;;5033242;28;20108;-81
2022/05/16 13:00:23;;;;;;;9.20;3.90;;;;;;;;;;5000630;28;20415;-81
2022/05/16 13:03:07;;;;;;;12.40;4.32;;;;;;;;;;5001136;28;20037;-80
2022/05/16 13:05:46;;;;;;;10.02;4.35;;;;;;;;;;5033800;28;20037;-80
2022/05/16 13:08:41;;;;;;;11.60;4.18;;;;;;;;;;5033669;28;20067;-80
2022/05/16 13:11:13;;;;;;;9.02;3.97;;;;;;;;;;5017251;28;20044;-80
2022/05/16 13:13:56;;;;;;;9.38;3.95;;;;;;;;;;5016728;28;20596;-80
2022/05/16 13:16:29;;;;;;;12.70;4.18;;;;;;;;;;5034568;28;20491;-80
2022/05/16 13:19:00;;;;;;;21.13;4.82;;;;;;;;;;5005550;28;20034;-80
2022/05/16 13:21:53;;;;;;;13.77;4.78;;;;;;;;;;5014010;28;20040;-80
2022/05/16 13:24:18;;;;;;;;;;;;;;;;;;4997810;28;20538;-80
2022/05/16 13:29:35;;;;;;;7.25;4.28;;;;;;;;;;5022151;28;20045;-80
2022/05/16 13:32:17;;;;;;;8.18;3.55;;;;;;;;;;5000999;28;20037;-80
2022/05/16 13:34:47;;;;;;;;;;;;;;;;;;4999868;28;20037;-80
2022/05/16 13:37:15;;;;;;;5.72;3.97;;;;;;;;;;5020339;28;19909;-80
2022/05/16 13:39:43;;;;;;;10.13;4.30;;;;;;;;;;5017502;28;20120;-80
2022/05/16 13:42:09;;;;;;;8.02;3.92;;;;;;;;;;5001369;28;20522;-80
2022/05/16 13:44:39;;;;;;;10.30;3.95;;;;;;;;;;5001484;28;20083;-81
2022/05/16 13:47:05;;;;;;;8.77;4.00;;;;;;;;;;5006494;28;20082;-81
2022/05/16 13:49:32;;;;;;;7.05;3.78;;;;;;;;;;5040782;28;20037;-80
2022/05/16 13:51:58;;;;;;;11.70;3.95;;;;;;;;;;5041237;28;20107;-81
2022/05/16 13:54:33;;;;;;;41.25;6.55;;;;;;;;;;5040228;28;20112;-79
2022/05/16 13:57:01;;;;;;;11.25;3.75;;;;;;;;;;5020450;28;20509;-78
2022/05/16 13:59:31;;;;;;;13.60;5.45;;;;;;;;;;5017806;28;20037;-78
2022/05/16 14:02:23;;;;;;;8.48;3.70;;;;;;;;;;5005623;28;20500;-78
2022/05/16 14:04:49;;;;;;;9.20;3.90;;;;;;;;;;5018137;28;20041;-78
2022/05/16 14:07:29;;;;;;;7.00;3.42;;;;;;;;;;5020232;28;20087;-78
2022/05/16 14:09:58;;;;;;;11.30;3.40;;;;;;;;;;5021263;28;20549;-78
2022/05/16 14:12:46;;;;;;;9.95;4.07;;;;;;;;;;5020266;28;20041;-78
2022/05/16 14:15:50;;;;;;;7.35;3.00;;;;;;;;;;5004542;28;20061;-78
2022/05/16 14:18:41;;;;;;;8.10;3.40;;;;;;;;;;5012075;28;20113;-78
2022/05/16 14:21:26;;;;;;;9.70;3.83;;;;;;;;;;4998677;28;20042;-78
2022/05/16 14:23:58;;;;;;;6.05;2.92;;;;;;;;;;5010216;28;20045;-78
2022/05/16 14:26:38;;;;;;;6.45;2.90;;;;;;;;;;5054358;28;20033;-78
2022/05/16 14:29:27;;;;;;;9.40;2.92;;;;;;;;;;5033076;28;20095;-78
2022/05/16 14:31:59;;;;;;;5.25;2.28;;;;;;;;;;5016491;28;20581;-78
2022/05/16 14:34:26;;;;;;;5.57;2.55;;;;;;;;;;5034162;28;20025;-79
2022/05/16 14:36:53;;;;;;;7.25;2.60;;;;;;;;;;5000130;28;20042;-78
2022/05/16 14:39:23;;;;;;;6.72;2.88;;;;;;;;;;5002314;28;20546;-78
2022/05/16 14:42:04;;;;;;;5.68;3.05;;;;;;;;;;5019337;28;20098;-78
2022/05/16 14:44:45;;;;;;;9.30;3.00;;;;;;;;;;5035824;28;20036;-78
2022/05/16 14:47:23;;;;;;;13.55;5.05;;;;;;;;;;5018033;28;20139;-78
2022/05/16 14:49:49;;;;;;;9.65;4.97;;;;;;;;;;5027735;28;20261;-79
2022/05/16 14:52:18;;;;;;;12.13;5.35;;;;;;;;;;5016111;28;20029;-78
2022/05/16 14:54:49;;;;;;;10.80;4.97;;;;;;;;;;5005378;28;20037;-78
2022/05/16 14:57:14;;;;;;;8.13;3.67;;;;;;;;;;5013305;28;20373;-81
2022/05/16 14:59:40;;;;;;;8.23;3.47;;;;;;;;;;4999319;28;20048;-81
2022/05/16 15:04:50;;;;;;;10.23;3.20;;;;;;;;;;5021975;28;20025;-81
2022/05/16 15:07:15;;;;;;;6.40;2.70;;;;;;;;;;5019585;28;20041;-81
2022/05/16 15:09:41;;;;;;;10.23;2.75;;;;;;;;;;5006309;28;20036;-81
2022/05/16 15:12:08;;;;;;;7.65;2.47;;;;;;;;;;5035402;28;20049;-82
2022/05/16 15:14:35;;;;;;;6.93;2.20;;;;;;;;;;5018615;28;20414;-81
2022/05/16 15:17:00;;;;;;;6.00;2.63;;;;;;;;;;5035889;28;20086;-82
2022/05/16 15:19:26;;;;;;;7.40;2.70;;;;;;;;;;5018915;28;20465;-81
2022/05/16 15:21:52;;;;;;;14.88;6.40;;;;;;;;;;5002951;28;20036;-82
2022/05/16 15:24:40;;;;;;;15.15;6.38;;;;;;;;;;4986257;28;20028;-81
2022/05/16 15:27:06;;;;;;;7.55;3.85;;;;;;;;;;4987995;28;20040;-81
2022/05/16 15:29:36;;;;;;;8.95;3.08;;;;;;;;;;5002309;28;20037;-81
2022/05/16 15:32:04;;;;;;;5.55;1.75;;;;;;;;;;5003309;28;20466;-81